createdAt,value
2022-08-02T00:00:40.613Z,4.32
2022-08-02T00:03:06.948Z,4.03
2022-08-02T00:05:33.232Z,3.47
2022-08-02T00:07:59.547Z,3.97
2022-08-02T00:10:25.829Z,3.85
2022-08-02T00:12:52.096Z,4.38
2022-08-02T00:15:19.644Z,3.70
2022-08-02T00:17:46.440Z,3.83
2022-08-02T00:20:15.010Z,3.80
2022-08-02T00:22:41.353Z,4.10
2022-08-02T00:25:07.719Z,3.72
2022-08-02T00:27:34.074Z,4.13
2022-08-02T00:30:00.373Z,4.60
2022-08-02T00:32:26.676Z,4.72
2022-08-02T00:34:52.939Z,4.70
2022-08-02T00:37:19.373Z,4.38
2022-08-02T00:39:45.731Z,4.47
2022-08-02T00:42:14.484Z,4.90
2022-08-02T00:44:40.972Z,5.10
2022-08-02T00:47:07.313Z,4.72
2022-08-02T00:49:33.618Z,4.10
2022-08-02T00:52:00.300Z,4.78
2022-08-02T00:54:26.682Z,4.00
2022-08-02T00:56:53.047Z,4.40
2022-08-02T00:59:19.414Z,4.30
2022-08-02T01:01:56.300Z,4.15
2022-08-02T01:04:30.432Z,4.30
2022-08-02T01:06:58.903Z,4.38
2022-08-02T01:09:25.405Z,4.93
2022-08-02T01:11:51.771Z,4.13
2022-08-02T01:14:18.655Z,4.57
2022-08-02T01:17:06.912Z,4.20
2022-08-02T01:19:36.692Z,4.18
2022-08-02T01:22:57.999Z,4.25
2022-08-02T01:25:31.462Z,4.00
2022-08-02T01:28:16.545Z,3.88
2022-08-02T01:30:44.467Z,4.55
2022-08-02T01:33:12.968Z,4.65
2022-08-02T01:35:47.381Z,3.92
2022-08-02T01:38:30.918Z,3.83
2022-08-02T01:40:58.557Z,4.35
2022-08-02T01:43:26.482Z,3.85
2022-08-02T01:45:53.070Z,3.90
2022-08-02T01:48:19.986Z,3.78
2022-08-02T01:50:46.984Z,4.00
2022-08-02T01:53:14.036Z,4.13
2022-08-02T01:55:57.620Z,4.05
2022-08-02T01:58:27.085Z,3.83
2022-08-02T02:00:53.747Z,4.30
2022-08-02T02:03:21.429Z,3.85
2022-08-02T02:05:48.482Z,3.63
2022-08-02T02:08:14.908Z,3.50
2022-08-02T02:10:54.833Z,3.60
2022-08-02T02:13:21.458Z,3.40
2022-08-02T02:16:02.151Z,3.35
2022-08-02T02:18:29.552Z,3.00
2022-08-02T02:20:56.155Z,3.30
2022-08-02T02:23:25.145Z,3.30
2022-08-02T02:25:53.248Z,3.17
2022-08-02T02:28:24.350Z,3.03
2022-08-02T02:30:53.211Z,2.65
2022-08-02T02:33:20.550Z,3.13
2022-08-02T02:35:47.846Z,2.95
2022-08-02T02:38:16.455Z,2.90
2022-08-02T02:40:44.749Z,2.72
2022-08-02T02:43:12.183Z,2.90
2022-08-02T02:45:39.360Z,2.78
2022-08-02T02:48:06.212Z,2.78
2022-08-02T02:50:33.048Z,2.80
2022-08-02T02:53:00.035Z,2.70
2022-08-02T02:55:27.229Z,3.03
2022-08-02T02:57:54.050Z,2.83
2022-08-02T03:00:40.861Z,2.97
2022-08-02T03:03:07.418Z,2.90
2022-08-02T03:05:33.799Z,2.85
2022-08-02T03:08:00.075Z,3.40
2022-08-02T03:10:26.792Z,3.08
2022-08-02T03:12:53.296Z,2.72
2022-08-02T03:15:21.197Z,3.00
2022-08-02T03:17:47.480Z,3.30
2022-08-02T03:20:15.725Z,3.33
2022-08-02T03:22:42.480Z,3.45
2022-08-02T03:25:09.612Z,3.10
2022-08-02T03:27:35.983Z,3.35
2022-08-02T03:30:02.366Z,2.95
2022-08-02T03:32:28.639Z,3.10
2022-08-02T03:34:54.935Z,3.55
2022-08-02T03:37:21.439Z,3.40
2022-08-02T03:39:49.668Z,2.97
2022-08-02T03:42:20.069Z,3.00
2022-08-02T03:44:46.861Z,3.30
2022-08-02T03:47:13.333Z,3.40
2022-08-02T03:49:40.149Z,3.45
2022-08-02T03:52:06.905Z,3.17
2022-08-02T03:54:34.730Z,3.55
2022-08-02T03:57:12.295Z,3.70
2022-08-02T03:59:43.402Z,3.72
2022-08-02T04:02:10.184Z,3.70
2022-08-02T04:04:36.717Z,4.07
2022-08-02T04:07:03.197Z,4.03
2022-08-02T04:09:33.979Z,3.47
2022-08-02T04:12:00.276Z,4.32
2022-08-02T04:14:26.623Z,3.80
2022-08-02T04:16:59.246Z,3.92
2022-08-02T04:19:27.873Z,3.85
2022-08-02T04:21:54.949Z,3.95
2022-08-02T04:24:26.676Z,3.95
2022-08-02T04:26:57.995Z,4.40
2022-08-02T04:29:33.612Z,3.93
2022-08-02T04:32:00.120Z,4.50
2022-08-02T04:34:26.532Z,3.85
2022-08-02T04:36:52.944Z,3.95
2022-08-02T04:39:19.458Z,3.95
2022-08-02T04:41:46.348Z,3.60
2022-08-02T04:44:13.132Z,3.95
2022-08-02T04:46:40.148Z,4.18
2022-08-02T04:49:06.607Z,3.97
2022-08-02T04:51:38.173Z,3.97
2022-08-02T04:54:09.243Z,3.88
2022-08-02T04:56:36.574Z,3.90
2022-08-02T04:59:02.898Z,3.78
2022-08-02T05:01:29.296Z,3.70
2022-08-02T05:03:55.618Z,3.95
2022-08-02T05:06:21.893Z,4.07
2022-08-02T05:08:52.494Z,4.03
2022-08-02T05:11:19.725Z,4.22
2022-08-02T05:13:58.688Z,4.05
2022-08-02T05:16:31.366Z,4.10
2022-08-02T05:18:58.899Z,3.45
2022-08-02T05:21:25.173Z,3.78
2022-08-02T05:23:51.488Z,3.20
2022-08-02T05:26:17.795Z,3.83
2022-08-02T05:28:44.091Z,3.80
2022-08-02T05:31:13.128Z,3.58
2022-08-02T05:33:40.138Z,3.28
2022-08-02T05:36:06.642Z,3.22
2022-08-02T05:38:32.935Z,2.92
2022-08-02T05:41:03.596Z,3.38
2022-08-02T05:43:30.304Z,3.33
2022-08-02T05:45:56.617Z,3.47
2022-08-02T05:48:25.436Z,3.28
2022-08-02T05:50:58.467Z,3.53
2022-08-02T05:56:11.365Z,3.58
2022-08-02T05:58:43.808Z,3.63
2022-08-02T06:01:12.708Z,3.97
2022-08-02T06:03:41.941Z,4.10
2022-08-02T06:06:12.528Z,3.65
2022-08-02T06:08:47.413Z,3.60
2022-08-02T06:11:16.458Z,4.07
2022-08-02T06:13:42.820Z,3.92
2022-08-02T06:16:13.943Z,4.10
2022-08-02T06:18:41.192Z,4.20
2022-08-02T06:22:31.298Z,3.95
2022-08-02T06:23:59.026Z,4.28
2022-08-02T06:26:26.658Z,4.38
2022-08-02T06:28:53.989Z,5.18
2022-08-02T06:31:20.377Z,4.05
2022-08-02T06:33:46.642Z,4.03
2022-08-02T06:36:31.702Z,5.00
2022-08-02T06:39:05.942Z,5.63
2022-08-02T06:41:39.610Z,5.03
2022-08-02T06:44:40.617Z,4.82
2022-08-02T06:47:12.038Z,5.38
2022-08-02T06:49:52.980Z,5.68
2022-08-02T06:52:25.636Z,5.10
2022-08-02T06:54:55.448Z,5.22
2022-08-02T06:57:21.767Z,4.65
2022-08-02T06:59:48.037Z,5.72
2022-08-02T07:02:14.533Z,6.00
2022-08-02T07:04:40.956Z,6.05
2022-08-02T07:07:07.272Z,6.20
2022-08-02T07:09:33.542Z,6.20
2022-08-02T07:11:59.827Z,6.72
2022-08-02T07:14:26.086Z,6.72
2022-08-02T07:16:53.433Z,6.95
2022-08-02T07:19:19.764Z,6.22
2022-08-02T07:21:59.526Z,7.07
2022-08-02T07:24:28.261Z,6.88
2022-08-02T07:27:10.568Z,7.47
2022-08-02T07:29:45.960Z,7.10
2022-08-02T07:32:14.976Z,8.05
2022-08-02T07:34:42.409Z,7.63
2022-08-02T07:37:09.842Z,7.97
2022-08-02T07:39:49.856Z,8.38
2022-08-02T07:42:16.118Z,7.82
2022-08-02T07:44:44.324Z,8.02
2022-08-02T07:47:13.948Z,8.32
2022-08-02T07:49:40.461Z,8.40
2022-08-02T07:52:06.816Z,8.38
2022-08-02T07:54:33.521Z,9.80
2022-08-02T07:57:01.018Z,9.80
2022-08-02T07:59:27.391Z,10.50
2022-08-02T08:01:53.820Z,10.68
2022-08-02T08:04:20.202Z,10.40
2022-08-02T08:06:51.829Z,10.60
2022-08-02T08:09:18.633Z,10.18
2022-08-02T08:11:44.915Z,9.73
2022-08-02T08:14:16.181Z,9.60
2022-08-02T08:16:43.178Z,9.27
2022-08-02T08:19:09.474Z,8.65
2022-08-02T08:21:36.914Z,8.55
2022-08-02T08:24:04.628Z,8.50
2022-08-02T08:26:30.961Z,7.82
2022-08-02T08:28:57.278Z,7.25
2022-08-02T08:31:23.607Z,6.07
2022-08-02T08:33:49.887Z,6.13
2022-08-02T08:36:16.579Z,5.68
2022-08-02T08:38:42.897Z,5.35
2022-08-02T08:41:09.223Z,5.35
2022-08-02T08:43:36.702Z,5.38
2022-08-02T08:46:03.225Z,4.85
2022-08-02T08:48:31.901Z,4.95
2022-08-02T08:51:04.404Z,4.90
2022-08-02T08:53:36.574Z,4.90
2022-08-02T08:56:03.612Z,4.60
2022-08-02T08:58:29.882Z,4.40
2022-08-02T09:00:56.550Z,4.30
2022-08-02T09:03:22.891Z,4.68
2022-08-02T09:05:49.243Z,3.70
2022-08-02T09:08:17.097Z,3.35
2022-08-02T09:10:45.248Z,3.67
2022-08-02T09:13:38.773Z,3.88
2022-08-02T09:15:59.257Z,3.63
2022-08-02T09:18:39.719Z,4.33
2022-08-02T09:21:07.212Z,4.00
2022-08-02T09:23:34.395Z,4.05
2022-08-02T09:26:07.023Z,4.30
2022-08-02T09:28:34.871Z,4.63
2022-08-02T09:31:07.430Z,5.20
2022-08-02T09:33:34.407Z,5.15
2022-08-02T09:36:07.236Z,5.05
2022-08-02T09:38:34.762Z,5.60
2022-08-02T09:41:01.406Z,5.60
2022-08-02T09:43:37.498Z,5.32
2022-08-02T09:46:10.772Z,5.55
2022-08-02T09:48:45.900Z,5.82
2022-08-02T09:51:29.664Z,5.55
2022-08-02T09:54:07.929Z,5.03
2022-08-02T09:56:42.533Z,5.00
2022-08-02T09:59:09.521Z,5.00
2022-08-02T10:01:37.077Z,5.00
2022-08-02T10:04:07.968Z,5.30
2022-08-02T10:06:34.665Z,5.25
2022-08-02T10:09:01.193Z,5.00
2022-08-02T10:11:28.442Z,4.70
2022-08-02T10:13:55.338Z,4.88
2022-08-02T10:16:23.364Z,4.38
2022-08-02T10:18:51.067Z,4.65
2022-08-02T10:21:37.531Z,4.70
2022-08-02T10:24:08.326Z,4.28
2022-08-02T10:26:35.284Z,4.18
2022-08-02T10:29:02.241Z,3.90
2022-08-02T10:31:33.479Z,3.90
2022-08-02T10:34:01.268Z,3.63
2022-08-02T10:36:29.678Z,3.70
2022-08-02T10:38:58.518Z,3.80
2022-08-02T10:42:00.423Z,3.25
2022-08-02T10:44:31.266Z,2.88
2022-08-02T10:49:39.192Z,3.30
2022-08-02T10:52:07.227Z,2.92
2022-08-02T10:54:35.856Z,2.55
2022-08-02T10:57:02.706Z,2.58
2022-08-02T10:59:30.912Z,2.65
2022-08-02T11:02:01.927Z,3.67
2022-08-02T11:04:37.171Z,2.47
2022-08-02T11:07:14.271Z,2.10
2022-08-02T11:09:41.654Z,2.03
2022-08-02T11:12:09.586Z,2.00
2022-08-02T11:14:37.611Z,1.95
2022-08-02T11:17:05.455Z,2.00
2022-08-02T11:19:32.344Z,1.85
2022-08-02T11:22:10.245Z,2.08
2022-08-02T11:24:37.448Z,2.10
2022-08-02T11:27:04.933Z,2.83
2022-08-02T11:29:41.384Z,2.53
2022-08-02T11:32:08.728Z,2.13
2022-08-02T11:34:36.356Z,2.30
2022-08-02T11:37:04.274Z,2.27
2022-08-02T11:39:30.634Z,1.80
2022-08-02T11:41:58.798Z,1.60
2022-08-02T11:44:28.921Z,1.58
2022-08-02T11:49:21.570Z,1.60
2022-08-02T11:52:07.125Z,1.42
2022-08-02T11:54:43.388Z,1.88
2022-08-02T11:57:09.692Z,2.05
2022-08-02T11:59:39.387Z,2.50
2022-08-02T12:02:06.207Z,2.20
2022-08-02T12:04:32.698Z,2.00
2022-08-02T12:07:00.346Z,1.90
2022-08-02T12:09:28.248Z,2.15
2022-08-02T12:11:56.237Z,2.10
2022-08-02T12:14:23.399Z,1.70
2022-08-02T12:17:08.528Z,1.75
2022-08-02T12:19:35.463Z,1.40
2022-08-02T12:22:16.399Z,1.70
2022-08-02T12:24:44.994Z,1.70
2022-08-02T12:27:27.500Z,1.50
2022-08-02T12:29:59.471Z,1.40
2022-08-02T12:32:26.589Z,1.50
2022-08-02T12:35:05.207Z,1.20
2022-08-02T12:37:31.475Z,1.00
2022-08-02T12:39:57.745Z,1.02
2022-08-02T12:42:24.054Z,1.20
2022-08-02T12:44:54.962Z,1.48
2022-08-02T12:47:21.945Z,1.60
2022-08-02T12:50:08.230Z,1.27
2022-08-02T12:52:34.618Z,1.25
2022-08-02T12:55:00.860Z,1.10
2022-08-02T12:57:27.114Z,1.48
2022-08-02T12:59:53.634Z,1.40
2022-08-02T13:02:21.158Z,1.30
2022-08-02T13:04:49.634Z,1.27
2022-08-02T13:07:17.074Z,1.20
2022-08-02T13:09:45.535Z,1.30
2022-08-02T13:12:12.150Z,1.63
2022-08-02T13:14:41.854Z,1.75
2022-08-02T13:17:09.003Z,1.60
2022-08-02T13:19:36.796Z,1.45
2022-08-02T13:22:03.863Z,1.40
2022-08-02T13:24:41.053Z,1.50
2022-08-02T13:27:17.692Z,1.20
2022-08-02T13:29:44.292Z,1.45
2022-08-02T13:32:10.816Z,1.10
2022-08-02T13:34:37.349Z,1.13
2022-08-02T13:37:04.169Z,1.10
2022-08-02T13:39:30.621Z,1.20
2022-08-02T13:41:56.960Z,1.25
2022-08-02T13:44:23.244Z,0.98
2022-08-02T13:46:49.531Z,1.05
2022-08-02T13:49:19.451Z,1.30
2022-08-02T13:51:46.814Z,1.20
2022-08-02T13:54:13.096Z,0.95
2022-08-02T13:56:39.413Z,1.23
2022-08-02T13:59:23.690Z,0.90
2022-08-02T14:01:52.602Z,0.90
2022-08-02T14:04:18.964Z,1.25
2022-08-02T14:06:45.275Z,1.20
2022-08-02T14:09:15.774Z,1.10
2022-08-02T14:11:43.334Z,1.30
2022-08-02T14:14:14.038Z,1.30
2022-08-02T14:16:43.385Z,0.98
2022-08-02T14:19:10.822Z,1.45
2022-08-02T14:21:46.632Z,1.17
2022-08-02T14:24:14.511Z,1.40
2022-08-02T14:26:40.803Z,1.73
2022-08-02T14:29:07.100Z,1.20
2022-08-02T14:31:33.490Z,1.35
2022-08-02T14:33:59.831Z,1.67
2022-08-02T14:36:27.627Z,1.60
2022-08-02T14:38:54.519Z,1.50
2022-08-02T14:41:21.046Z,1.50
2022-08-02T14:44:06.050Z,1.60
2022-08-02T14:46:33.048Z,1.40
2022-08-02T14:49:02.115Z,1.77
2022-08-02T14:51:29.516Z,1.53
2022-08-02T14:54:02.415Z,1.55
2022-08-02T14:56:30.333Z,1.30
2022-08-02T14:58:57.088Z,1.67
2022-08-02T15:01:25.885Z,1.38
2022-08-02T15:03:52.601Z,3.27
2022-08-02T15:06:18.865Z,1.60
2022-08-02T15:08:45.196Z,1.50
2022-08-02T15:11:11.508Z,1.83
2022-08-02T15:13:42.342Z,1.38
2022-08-02T15:16:09.861Z,1.40
2022-08-02T15:18:36.228Z,1.70
2022-08-02T15:21:14.279Z,2.20
2022-08-02T15:23:48.783Z,1.30
2022-08-02T15:26:15.055Z,1.42
2022-08-02T15:28:41.347Z,1.38
2022-08-02T15:31:07.650Z,1.30
2022-08-02T15:33:34.163Z,1.17
2022-08-02T15:36:00.615Z,1.15
2022-08-02T15:38:26.872Z,1.30
2022-08-02T15:40:53.148Z,1.33
2022-08-02T15:43:21.599Z,1.20
2022-08-02T15:45:47.848Z,1.20
2022-08-02T15:48:14.324Z,1.80
2022-08-02T15:50:40.605Z,1.33
2022-08-02T15:53:06.943Z,1.17
2022-08-02T15:55:39.927Z,1.33
2022-08-02T15:58:22.541Z,1.35
2022-08-02T16:00:49.042Z,1.20
2022-08-02T16:03:15.352Z,1.38
2022-08-02T16:05:41.616Z,1.50
2022-08-02T16:08:08.236Z,1.30
2022-08-02T16:10:34.587Z,1.50
2022-08-02T16:13:19.364Z,1.60
2022-08-02T16:15:45.653Z,1.50
2022-08-02T16:18:11.948Z,1.40
2022-08-02T16:20:38.274Z,1.40
2022-08-02T16:23:04.697Z,1.60
2022-08-02T16:25:31.061Z,1.30
2022-08-02T16:27:59.254Z,1.40
2022-08-02T16:30:33.840Z,1.60
2022-08-02T16:33:00.167Z,1.38
2022-08-02T16:35:28.031Z,1.80
2022-08-02T16:37:54.393Z,1.60
2022-08-02T16:40:21.337Z,1.50
2022-08-02T16:42:50.723Z,1.48
2022-08-02T16:50:50.688Z,1.50
2022-08-02T16:53:17.737Z,1.70
2022-08-02T16:56:03.508Z,1.30
2022-08-02T16:58:29.809Z,1.48
2022-08-02T17:00:56.113Z,1.40
2022-08-02T17:03:24.162Z,1.60
2022-08-02T17:06:00.955Z,1.90
2022-08-02T17:08:31.794Z,1.50
2022-08-02T17:10:58.700Z,1.52
2022-08-02T17:13:30.164Z,1.67
2022-08-02T17:16:16.702Z,1.90
2022-08-02T17:18:47.045Z,1.60
2022-08-02T17:21:13.967Z,2.08
2022-08-02T17:24:02.807Z,1.67
2022-08-02T17:26:30.832Z,1.48
2022-08-02T17:29:15.545Z,1.85
2022-08-02T17:32:02.506Z,1.70
2022-08-02T17:34:31.391Z,1.63
2022-08-02T17:36:57.673Z,1.77
2022-08-02T17:39:33.601Z,1.70
2022-08-02T17:42:00.750Z,1.90
2022-08-02T17:44:37.451Z,2.08
2022-08-02T17:47:06.369Z,1.70
2022-08-02T17:49:33.017Z,1.90
2022-08-02T17:52:49.544Z,1.80
2022-08-02T17:54:46.037Z,1.80
2022-08-02T17:57:12.450Z,1.55
2022-08-02T17:59:41.784Z,1.65
2022-08-02T18:02:09.078Z,1.55
2022-08-02T18:04:37.903Z,1.80
2022-08-02T18:07:04.574Z,1.67
2022-08-02T18:09:36.288Z,1.50
2022-08-02T18:12:02.555Z,1.90
2022-08-02T18:14:31.726Z,1.58
2022-08-02T18:16:58.644Z,1.70
2022-08-02T18:19:42.137Z,1.73
2022-08-02T18:22:09.396Z,2.10
2022-08-02T18:24:37.418Z,1.50
2022-08-02T18:27:04.551Z,1.58
2022-08-02T18:29:38.681Z,1.83
2022-08-02T18:32:05.417Z,2.30
2022-08-02T18:34:38.249Z,1.75
2022-08-02T18:37:06.324Z,1.63
2022-08-02T18:39:33.350Z,1.50
2022-08-02T18:42:04.896Z,1.60
2022-08-02T18:44:31.467Z,1.75
2022-08-02T18:46:57.776Z,1.60
2022-08-02T18:49:25.590Z,1.55
2022-08-02T18:52:12.256Z,1.17
2022-08-02T18:54:38.881Z,1.83
2022-08-02T18:58:17.129Z,1.27
2022-08-02T18:59:51.698Z,1.40
2022-08-02T19:02:17.983Z,1.35
2022-08-02T19:04:47.152Z,1.30
2022-08-02T19:07:13.571Z,1.35
2022-08-02T19:09:42.811Z,1.40
2022-08-02T19:12:11.287Z,1.67
2022-08-02T19:14:38.121Z,1.42
2022-08-02T19:17:16.038Z,1.50
2022-08-02T19:19:51.317Z,1.25
2022-08-02T19:22:20.081Z,1.77
2022-08-02T19:24:47.770Z,1.40
2022-08-02T19:27:14.943Z,1.60
2022-08-02T19:29:42.874Z,1.30
2022-08-02T19:32:42.261Z,1.58
2022-08-02T19:35:19.686Z,1.42
2022-08-02T19:37:50.737Z,1.90
2022-08-02T19:40:23.672Z,1.90
2022-08-02T19:44:20.847Z,1.65
2022-08-02T19:45:51.255Z,1.67
2022-08-02T19:48:23.921Z,1.58
2022-08-02T19:50:59.452Z,1.33
2022-08-02T19:53:29.063Z,2.47
2022-08-02T19:56:20.648Z,1.38
2022-08-02T19:58:47.871Z,1.67
2022-08-02T20:01:16.551Z,1.95
2022-08-02T20:03:52.462Z,1.67
2022-08-02T20:06:19.615Z,1.50
2022-08-02T20:08:57.217Z,2.28
2022-08-02T20:11:25.748Z,1.63
2022-08-02T20:13:53.337Z,1.60
2022-08-02T20:16:27.963Z,1.45
2022-08-02T20:18:55.026Z,1.58
2022-08-02T20:21:36.245Z,1.58
2022-08-02T20:24:04.032Z,1.50
2022-08-02T20:26:30.484Z,1.80
2022-08-02T20:29:02.695Z,1.20
2022-08-02T20:31:32.398Z,1.80
2022-08-02T20:33:58.911Z,1.50
2022-08-02T20:36:26.425Z,2.00
2022-08-02T20:38:53.041Z,1.40
2022-08-02T20:44:16.153Z,1.40
2022-08-02T20:46:53.728Z,1.38
2022-08-02T20:49:25.173Z,1.45
2022-08-02T20:52:04.644Z,1.25
2022-08-02T20:54:50.559Z,1.20
2022-08-02T20:57:16.820Z,1.30
2022-08-02T20:59:43.942Z,1.60
2022-08-02T21:02:18.757Z,1.20
2022-08-02T21:04:46.697Z,1.80
2022-08-02T21:07:13.109Z,1.30
2022-08-02T21:09:53.801Z,1.50
2022-08-02T21:12:21.874Z,1.50
2022-08-02T21:14:59.603Z,1.42
2022-08-02T21:17:27.662Z,1.30
2022-08-02T21:20:16.889Z,1.95
2022-08-02T21:22:43.471Z,1.40
2022-08-02T21:25:11.204Z,1.63
2022-08-02T21:27:53.304Z,1.50
2022-08-02T21:30:24.288Z,1.40
2022-08-02T21:32:54.409Z,1.25
2022-08-02T21:35:22.116Z,1.60
2022-08-02T21:37:48.948Z,1.45
2022-08-02T21:40:35.364Z,1.10
2022-08-02T21:43:02.062Z,1.65
2022-08-02T21:45:28.753Z,1.75
2022-08-02T21:47:57.343Z,1.38
2022-08-02T21:50:23.715Z,1.08
2022-08-02T21:52:52.333Z,1.58
2022-08-02T21:55:24.238Z,1.27
2022-08-02T21:58:05.194Z,1.73
2022-08-02T22:00:31.510Z,1.50
2022-08-02T22:02:57.831Z,1.30
2022-08-02T22:05:25.053Z,1.40
2022-08-02T22:07:51.367Z,1.30
2022-08-02T22:10:17.676Z,1.70
2022-08-02T22:12:43.975Z,1.30
2022-08-02T22:15:11.517Z,1.38
2022-08-02T22:17:53.117Z,1.52
2022-08-02T22:20:21.130Z,1.52
2022-08-02T22:22:50.757Z,1.55
2022-08-02T22:25:27.251Z,1.30
2022-08-02T22:28:36.500Z,1.20
2022-08-02T22:30:50.548Z,1.17
2022-08-02T22:33:37.869Z,1.67
2022-08-02T22:36:04.590Z,1.33
2022-08-02T22:38:30.885Z,1.30
2022-08-02T22:40:57.289Z,1.40
2022-08-02T22:43:23.732Z,1.20
2022-08-02T22:45:50.489Z,1.10
2022-08-02T22:48:16.943Z,1.05
2022-08-02T22:50:43.427Z,1.20
2022-08-02T22:53:09.774Z,1.42
2022-08-02T22:55:36.117Z,1.63
2022-08-02T22:58:08.430Z,1.40
2022-08-02T22:58:34.852Z,1.45
2022-08-02T22:58:49.639Z,1.42
2022-08-02T22:58:55.966Z,1.60
2022-08-02T23:00:34.700Z,1.50
2022-08-02T23:03:00.978Z,1.15
2022-08-02T23:05:29.312Z,1.30
2022-08-02T23:07:55.624Z,1.30
2022-08-02T23:10:22.228Z,1.13
2022-08-02T23:12:48.593Z,1.00
2022-08-02T23:15:14.856Z,1.50
2022-08-02T23:17:59.936Z,1.42
2022-08-02T23:20:26.422Z,1.35
2022-08-02T23:22:52.725Z,1.35
2022-08-02T23:25:22.070Z,1.20
2022-08-02T23:27:50.742Z,1.48
2022-08-02T23:30:17.267Z,1.30
2022-08-02T23:32:43.565Z,1.80
2022-08-02T23:35:09.904Z,1.42
2022-08-02T23:37:59.218Z,1.50
2022-08-02T23:40:38.652Z,1.50
2022-08-02T23:43:13.338Z,1.23
2022-08-02T23:45:41.062Z,1.40
2022-08-02T23:48:07.382Z,1.77
2022-08-02T23:50:33.664Z,1.23
2022-08-02T23:52:59.931Z,1.65
2022-08-02T23:55:26.217Z,1.30
2022-08-02T23:57:52.513Z,1.63
